Time;durP1;ratioP1;P1;durP2;ratioP2;P2;SDS_P1;SDS_P2;PMS_P1;PMS_P2;Temp;Humidity;BMP_temperature;BMP_pressure;BME280_temperature;BME280_humidity;BME280_pressure;Samples;Min_cycle;Max_cycle;Signal;HPM_P1;HPM_P2
2021/12/08 00:01:16;;;;;;;5.47;1.93;;;;;;;5.36;64.95;98997.13;5081852;28;20317;-62
2021/12/08 00:03:44;;;;;;;4.30;1.90;;;;;;;5.20;65.90;99004.84;5087728;28;20227;-63
2021/12/08 00:06:12;;;;;;;6.07;2.20;;;;;;;5.34;65.38;99004.34;5082047;28;20592;-62
2021/12/08 00:08:46;;;;;;;5.60;2.10;;;;;;;5.17;65.97;99011.25;5081551;28;20257;-62
2021/12/08 00:14:02;;;;;;;9.23;1.60;;;;;;;5.14;66.17;99011.53;5084394;28;20589;-64
2021/12/08 00:16:30;;;;;;;4.87;1.63;;;;;;;4.91;66.13;99005.88;5081912;28;20325;-63
2021/12/08 00:18:59;;;;;;;7.40;2.00;;;;;;;4.98;66.70;99006.09;5084973;28;20214;-64
2021/12/08 00:21:29;;;;;;;5.73;2.13;;;;;;;5.05;66.05;99006.34;5085216;28;20217;-62
2021/12/08 00:23:57;;;;;;;6.83;2.97;;;;;;;5.28;66.44;99011.00;5084731;28;20810;-62
2021/12/08 00:26:26;;;;;;;6.67;2.80;;;;;;;5.19;67.80;99016.34;5085421;28;20626;-62
2021/12/08 00:28:54;;;;;;;11.17;3.17;;;;;;;5.24;68.68;99014.91;5083621;28;20222;-61
2021/12/08 00:32:20;;;;;;;11.90;2.37;;;;;;;5.31;69.19;99004.63;5078815;28;20883;-62
2021/12/08 00:34:48;;;;;;;6.17;1.70;;;;;;;5.15;69.41;99000.03;5086791;28;20726;-62
2021/12/08 00:37:15;;;;;;;6.03;2.10;;;;;;;5.29;69.16;99002.13;5078613;28;20536;-62
2021/12/08 00:39:43;;;;;;;7.10;2.20;;;;;;;5.07;69.95;99007.03;5073190;28;20676;-61
2021/12/08 00:42:13;;;;;;;8.27;2.33;;;;;;;5.18;69.78;99009.44;5080004;28;20345;-61
2021/12/08 00:44:41;;;;;;;6.87;2.53;;;;;;;5.16;69.70;99006.13;5084258;28;22102;-61
2021/12/08 00:47:09;;;;;;;6.20;2.00;;;;;;;5.23;69.37;98999.28;5081019;28;20199;-61
2021/12/08 00:49:38;;;;;;;6.10;1.90;;;;;;;5.08;69.54;99004.25;5082303;28;20302;-61
2021/12/08 00:52:08;;;;;;;5.57;1.70;;;;;;;5.29;68.89;99009.19;5080878;28;20238;-61
2021/12/08 00:54:35;;;;;;;3.57;1.80;;;;;;;5.32;67.51;99005.44;5080945;28;20249;-62
2021/12/08 00:57:04;;;;;;;6.53;2.00;;;;;;;5.25;67.32;99018.38;5080956;28;20298;-62
2021/12/08 00:59:33;;;;;;;4.07;1.60;;;;;;;5.04;67.06;99017.81;5082950;28;20551;-62
2021/12/08 01:02:21;;;;;;;5.33;2.30;;;;;;;5.09;66.79;99031.34;5086934;28;20564;-63
2021/12/08 01:04:49;;;;;;;4.50;1.77;;;;;;;5.23;66.91;99038.72;5086907;28;20218;-63
2021/12/08 01:07:17;;;;;;;5.23;1.80;;;;;;;5.08;66.73;99040.19;5076854;28;20202;-61
2021/12/08 01:09:46;;;;;;;4.20;1.53;;;;;;;5.06;66.31;99037.72;5087056;28;20243;-62
2021/12/08 01:12:14;;;;;;;4.73;1.60;;;;;;;5.09;66.58;99036.59;5084256;28;20206;-62
2021/12/08 01:14:43;;;;;;;11.10;1.70;;;;;;;5.04;66.69;99020.44;5081658;28;20306;-63
2021/12/08 01:17:11;;;;;;;4.83;1.70;;;;;;;4.94;66.76;99020.50;5088324;28;20563;-62
2021/12/08 01:19:39;;;;;;;7.17;1.83;;;;;;;4.94;67.69;99033.63;5087353;28;20639;-62
2021/12/08 01:22:06;;;;;;;3.93;1.33;;;;;;;4.90;68.03;99043.63;5081452;28;20237;-62
2021/12/08 01:24:34;;;;;;;8.43;1.87;;;;;;;4.81;69.25;99051.56;5082583;28;20218;-62
2021/12/08 01:27:03;;;;;;;5.03;1.70;;;;;;;4.95;68.71;99047.59;5081436;28;20303;-62
2021/12/08 01:29:31;;;;;;;5.47;1.80;;;;;;;4.91;69.01;99060.22;5080667;28;20700;-62
2021/12/08 01:32:00;;;;;;;2.93;1.63;;;;;;;4.69;69.44;99048.28;5087473;28;20650;-62
2021/12/08 01:34:28;;;;;;;8.23;1.60;;;;;;;4.72;69.20;99053.25;5081792;28;20229;-62
2021/12/08 01:36:55;;;;;;;5.77;1.53;;;;;;;4.67;69.20;99052.00;5085043;28;20242;-62
2021/12/08 01:39:23;;;;;;;4.53;1.43;;;;;;;4.80;69.83;99040.22;5080350;28;20250;-62
2021/12/08 01:41:54;;;;;;;5.47;1.60;;;;;;;4.68;70.50;99023.00;5088053;28;20217;-62
2021/12/08 01:47:09;;;;;;;8.10;1.70;;;;;;;4.60;71.53;99025.53;5081985;28;20269;-62
2021/12/08 01:49:37;;;;;;;4.87;2.30;;;;;;;4.54;71.89;99023.47;5082438;28;20614;-62
2021/12/08 01:52:05;;;;;;;7.20;1.67;;;;;;;4.54;71.44;99015.59;5083545;28;20292;-62
2021/12/08 01:54:33;;;;;;;5.63;1.73;;;;;;;4.55;71.98;99012.00;5081354;28;20778;-61
2021/12/08 01:57:00;;;;;;;3.37;1.50;;;;;;;4.59;71.93;99015.16;5081941;28;20302;-62
2021/12/08 01:59:28;;;;;;;5.27;2.17;;;;;;;4.41;72.28;99002.81;5083643;28;20238;-61
2021/12/08 02:01:56;;;;;;;4.87;1.60;;;;;;;4.36;73.02;99009.47;5083294;28;20947;-61
2021/12/08 02:04:26;;;;;;;5.33;1.60;;;;;;;4.67;73.00;99004.75;5088353;28;20210;-60
2021/12/08 02:06:55;;;;;;;6.53;2.20;;;;;;;4.67;73.06;99008.19;5083521;28;20226;-63
2021/12/08 02:09:22;;;;;;;3.50;1.63;;;;;;;4.62;73.60;98989.44;5089199;28;20713;-60
2021/12/08 02:11:53;;;;;;;8.47;2.07;;;;;;;4.55;73.65;98991.00;5082483;28;20245;-61
2021/12/08 02:14:21;;;;;;;7.90;2.70;;;;;;;4.41;74.26;98983.59;5084380;28;20279;-62
2021/12/08 02:16:50;;;;;;;6.20;2.00;;;;;;;4.56;74.21;98989.22;5089992;28;20224;-62
2021/12/08 02:19:18;;;;;;;4.77;1.90;;;;;;;4.53;74.30;98988.53;5083178;28;20921;-61
2021/12/08 02:21:52;;;;;;;6.60;2.13;;;;;;;4.77;73.67;98990.59;5076848;28;20223;-61
2021/12/08 02:24:22;;;;;;;7.00;2.27;;;;;;;4.74;73.59;98975.16;5081973;28;20222;-62
2021/12/08 02:26:51;;;;;;;5.77;1.90;;;;;;;4.65;74.30;98969.97;5080328;28;20199;-62
2021/12/08 02:29:34;;;;;;;4.30;1.70;;;;;;;4.63;74.19;98964.84;5080459;28;20639;-61
2021/12/08 02:32:08;;;;;;;5.67;2.03;;;;;;;4.50;75.19;98961.72;5078404;28;20691;-63
2021/12/08 02:48:27;;;;;;;5.73;2.33;;;;;;;4.48;76.28;98961.06;5080781;28;20224;-64
2021/12/08 02:50:56;;;;;;;5.67;2.00;;;;;;;4.55;76.45;98959.50;5077383;28;20620;-64
2021/12/08 02:53:25;;;;;;;6.03;2.47;;;;;;;4.54;76.41;98963.09;5081639;28;20210;-62
2021/12/08 02:55:54;;;;;;;6.30;2.30;;;;;;;4.68;76.03;98959.97;5086185;28;20232;-63
2021/12/08 02:58:22;;;;;;;5.40;2.20;;;;;;;4.76;75.88;98962.69;5083653;28;20217;-62
2021/12/08 03:00:53;;;;;;;7.60;2.40;;;;;;;4.82;75.80;98972.63;5079556;28;20360;-62
2021/12/08 03:03:21;;;;;;;7.00;2.50;;;;;;;4.99;75.56;98972.78;5080835;28;20214;-63
2021/12/08 03:05:49;;;;;;;5.27;1.90;;;;;;;4.93;75.50;98966.31;5079298;28;20254;-63
2021/12/08 03:08:17;;;;;;;8.10;1.90;;;;;;;4.80;75.71;98971.94;5080939;28;20664;-64
2021/12/08 03:10:51;;;;;;;3.57;1.43;;;;;;;4.87;75.68;98974.78;5079907;28;20681;-62
2021/12/08 03:13:20;;;;;;;3.70;1.87;;;;;;;4.98;75.03;98973.75;5079779;28;20210;-63
2021/12/08 03:15:48;;;;;;;4.10;1.87;;;;;;;5.08;74.90;98966.63;5073937;28;20317;-63
2021/12/08 03:18:16;;;;;;;3.87;1.70;;;;;;;4.85;75.73;98967.06;5087172;28;20636;-62
2021/12/08 03:20:45;;;;;;;3.60;1.70;;;;;;;4.73;76.45;98975.31;5087827;28;20245;-62
2021/12/08 03:23:21;;;;;;;3.27;1.40;;;;;;;4.78;76.60;98971.25;5088074;28;20261;-62
2021/12/08 03:25:55;;;;;;;7.23;1.60;;;;;;;4.58;77.52;98974.13;5082175;28;20708;-62
2021/12/08 03:28:27;;;;;;;5.60;1.37;;;;;;;4.58;77.65;98972.31;5080973;28;20232;-62
2021/12/08 03:31:01;;;;;;;4.37;1.73;;;;;;;4.59;77.24;98973.16;5083999;28;20220;-61
2021/12/08 03:33:29;;;;;;;5.27;1.87;;;;;;;4.57;77.96;98970.69;5077329;28;20207;-62
2021/12/08 03:35:58;;;;;;;4.27;1.53;;;;;;;4.52;78.13;98980.78;5079102;28;20257;-61
2021/12/08 03:38:26;;;;;;;4.33;1.30;;;;;;;4.63;78.18;98971.91;5080150;28;20691;-62
2021/12/08 03:40:58;;;;;;;4.07;1.70;;;;;;;4.52;78.47;98973.75;5087002;28;20209;-61
2021/12/08 03:43:26;;;;;;;5.17;1.80;;;;;;;4.61;78.64;98976.47;5082824;28;20248;-61
2021/12/08 03:45:57;;;;;;;4.50;1.70;;;;;;;4.54;79.11;98974.44;5080253;28;20209;-61
2021/12/08 03:48:29;;;;;;;5.17;1.50;;;;;;;4.67;78.45;98968.81;5080433;28;20222;-61
2021/12/08 03:50:58;;;;;;;6.37;2.03;;;;;;;4.55;78.97;98970.00;5085088;28;20881;-62
2021/12/08 03:53:26;;;;;;;4.07;1.53;;;;;;;4.68;78.96;98973.09;5089482;28;20252;-60
2021/12/08 03:55:56;;;;;;;4.90;2.00;;;;;;;4.60;79.00;98978.25;5090228;28;20322;-62
2021/12/08 03:58:25;;;;;;;4.43;1.63;;;;;;;4.55;79.33;98975.25;5088360;28;20307;-62
2021/12/08 04:00:55;;;;;;;4.23;1.80;;;;;;;4.79;78.65;98972.06;5088253;28;20230;-62
2021/12/08 04:03:25;;;;;;;4.60;1.73;;;;;;;4.68;79.07;98967.84;5085630;28;20211;-62
2021/12/08 04:05:55;;;;;;;5.33;1.67;;;;;;;4.64;79.49;98974.38;5084379;28;20266;-62
2021/12/08 04:08:31;;;;;;;4.37;1.90;;;;;;;4.60;79.92;98975.63;5083646;28;20214;-61
2021/12/08 04:11:05;;;;;;;4.97;1.87;;;;;;;4.70;79.28;98981.66;5081873;28;20334;-61
2021/12/08 04:13:37;;;;;;;4.07;1.83;;;;;;;4.61;80.10;98974.66;5081042;28;20213;-61
2021/12/08 04:16:08;;;;;;;6.63;2.10;;;;;;;4.54;80.49;98969.19;5081487;28;20258;-62
2021/12/08 04:18:36;;;;;;;7.40;1.90;;;;;;;4.76;79.55;98961.84;5073112;28;20327;-61
2021/12/08 04:21:05;;;;;;;6.83;2.00;;;;;;;4.61;80.34;98964.16;5083189;28;20585;-62
2021/12/08 04:23:36;;;;;;;7.50;2.33;;;;;;;4.68;79.90;98959.97;5096037;28;20293;-62
2021/12/08 04:26:11;;;;;;;5.27;1.87;;;;;;;4.76;79.68;98946.94;5090989;28;20276;-62
2021/12/08 04:28:40;;;;;;;5.90;1.90;;;;;;;4.54;80.53;98942.09;5085946;28;20212;-62
2021/12/08 04:31:12;;;;;;;4.67;1.83;;;;;;;4.62;80.54;98938.75;5092635;28;20307;-62
2021/12/08 04:33:40;;;;;;;4.57;2.10;;;;;;;4.56;80.95;98949.84;5084599;28;20546;-62
2021/12/08 04:36:12;;;;;;;5.87;2.40;;;;;;;4.52;81.44;98941.41;5096207;28;20643;-62
2021/12/08 04:38:44;;;;;;;4.90;1.90;;;;;;;4.59;80.92;98950.34;5087185;28;20370;-62
2021/12/08 04:41:26;;;;;;;5.43;2.10;;;;;;;4.67;80.52;98947.81;5079831;28;20237;-62
2021/12/08 04:44:02;;;;;;;7.57;2.30;;;;;;;4.62;81.12;98955.31;5080111;28;20244;-62
2021/12/08 04:46:52;;;;;;;4.83;2.20;;;;;;;4.77;80.25;98959.09;5081086;28;20249;-62
2021/12/08 04:49:40;;;;;;;4.47;2.13;;;;;;;4.90;79.93;98971.88;5085580;28;20738;-62
2021/12/08 04:52:16;;;;;;;8.00;2.70;;;;;;;4.78;80.20;98968.63;5085991;28;23684;-62
2021/12/08 05:03:24;;;;;;;5.73;2.50;;;;;;;4.76;80.50;98965.31;5080175;28;20347;-62
2021/12/08 05:06:17;;;;;;;4.23;2.00;;;;;;;4.87;80.15;98973.00;5075836;28;20329;-62
2021/12/08 05:08:46;;;;;;;6.33;2.00;;;;;;;4.90;79.79;98975.34;5079924;28;20248;-62
2021/12/08 05:11:20;;;;;;;4.93;1.93;;;;;;;4.82;80.29;98975.25;5081784;28;20206;-62
2021/12/08 05:13:52;;;;;;;4.70;1.90;;;;;;;4.92;79.69;98973.34;5079155;28;20244;-62
2021/12/08 05:16:20;;;;;;;6.60;2.10;;;;;;;4.89;79.77;98980.72;5081538;28;20306;-62
2021/12/08 05:18:52;;;;;;;4.80;2.17;;;;;;;4.84;79.98;98983.78;5083197;28;20245;-64
2021/12/08 05:21:25;;;;;;;5.07;2.50;;;;;;;5.04;79.06;98987.13;5080885;28;20221;-62
2021/12/08 05:23:57;;;;;;;8.33;2.57;;;;;;;4.99;79.56;98988.53;5084598;28;20237;-62
2021/12/08 05:26:32;;;;;;;7.47;2.37;;;;;;;4.92;79.55;98986.50;5081235;28;20221;-62
2021/12/08 05:29:06;;;;;;;5.77;2.00;;;;;;;4.93;79.53;98985.53;5080385;28;20216;-62
2021/12/08 05:31:34;;;;;;;4.67;2.10;;;;;;;4.66;80.80;98982.91;5081577;28;20245;-62
2021/12/08 05:34:06;;;;;;;5.73;2.03;;;;;;;4.63;81.07;98977.97;5082397;28;20664;-62
2021/12/08 05:36:34;;;;;;;4.77;2.33;;;;;;;4.62;81.66;98980.75;5083461;28;20230;-62
2021/12/08 05:39:05;;;;;;;6.30;2.43;;;;;;;4.64;81.68;98990.13;5082023;28;20245;-62
2021/12/08 05:41:38;;;;;;;5.80;2.47;;;;;;;4.77;80.90;98990.59;5081860;28;20317;-62
2021/12/08 05:44:08;;;;;;;9.53;2.37;;;;;;;4.69;81.85;99000.19;5081393;28;20328;-62
2021/12/08 05:46:41;;;;;;;5.53;2.53;;;;;;;4.78;81.27;99008.00;5087513;28;20209;-63
2021/12/08 05:49:12;;;;;;;6.17;2.40;;;;;;;4.67;81.60;99010.00;5079549;28;20300;-62
2021/12/08 05:51:41;;;;;;;7.23;2.97;;;;;;;4.60;81.93;98993.19;5081908;28;20795;-62
2021/12/08 05:54:12;;;;;;;8.10;2.53;;;;;;;4.71;81.50;99006.94;5081521;28;20249;-62
2021/12/08 05:56:42;;;;;;;7.33;2.67;;;;;;;4.73;81.87;98998.94;5090394;28;20595;-62
2021/12/08 05:59:13;;;;;;;6.63;2.37;;;;;;;4.63;82.13;98992.91;5088333;28;20222;-62
2021/12/08 06:01:44;;;;;;;5.07;2.43;;;;;;;4.80;81.10;98992.94;5088103;28;20225;-62
2021/12/08 06:04:15;;;;;;;5.90;2.53;;;;;;;4.71;81.85;98983.31;5088041;28;20226;-64
2021/12/08 06:06:45;;;;;;;7.27;2.73;;;;;;;4.61;82.28;98979.09;5078658;28;20577;-62
2021/12/08 06:09:13;;;;;;;8.63;2.70;;;;;;;4.70;82.28;98989.53;5080548;28;20238;-63
2021/12/08 06:11:42;;;;;;;6.83;2.83;;;;;;;4.60;82.58;98991.38;5085452;28;20218;-61
2021/12/08 06:14:13;;;;;;;5.10;2.60;;;;;;;4.69;82.38;99000.19;5078379;28;20214;-62
2021/12/08 06:16:42;;;;;;;4.90;2.37;;;;;;;4.76;82.08;98999.44;5080749;28;21115;-62
2021/12/08 06:19:13;;;;;;;5.27;2.67;;;;;;;4.76;82.17;98998.63;5079345;28;20248;-61
2021/12/08 06:21:41;;;;;;;6.33;2.90;;;;;;;4.63;82.97;98993.72;5082035;28;20205;-62
2021/12/08 06:24:14;;;;;;;7.03;3.40;;;;;;;4.64;82.64;98995.38;5083544;28;20229;-62
2021/12/08 06:26:42;;;;;;;7.13;3.33;;;;;;;4.72;82.72;98998.09;5080076;28;20626;-62
2021/12/08 06:29:15;;;;;;;7.33;3.07;;;;;;;4.62;83.07;99001.75;5080608;28;20208;-62
2021/12/08 06:31:43;;;;;;;8.87;3.30;;;;;;;4.77;82.23;99005.53;5081335;28;20816;-61
2021/12/08 06:34:11;;;;;;;7.47;3.50;;;;;;;4.85;82.20;99001.19;5081117;28;20256;-62
2021/12/08 06:36:42;;;;;;;8.93;3.93;;;;;;;4.84;82.44;98996.91;5080041;28;20236;-62
2021/12/08 06:39:13;;;;;;;8.07;3.80;;;;;;;4.77;82.97;98995.84;5078461;28;20266;-62
2021/12/08 06:41:44;;;;;;;7.90;3.93;;;;;;;4.62;84.09;98986.81;5081134;28;20224;-62
2021/12/08 06:44:18;;;;;;;8.97;3.40;;;;;;;4.49;84.40;98973.19;5084371;28;20241;-62
2021/12/08 06:46:47;;;;;;;10.03;3.87;;;;;;;4.55;84.55;98959.50;5079574;28;20209;-62
2021/12/08 06:49:19;;;;;;;8.20;3.93;;;;;;;4.60;84.71;98944.13;5081167;28;20355;-62
2021/12/08 06:51:51;;;;;;;9.73;4.17;;;;;;;4.56;84.83;98949.84;5080746;28;20245;-62
2021/12/08 06:54:25;;;;;;;7.67;3.73;;;;;;;4.52;85.45;98962.41;5080740;28;20348;-62
2021/12/08 06:56:57;;;;;;;9.10;4.47;;;;;;;4.64;85.01;98989.31;5081424;28;20233;-61
2021/12/08 06:59:31;;;;;;;10.53;4.40;;;;;;;4.73;84.43;98996.31;5079478;28;20678;-61
2021/12/08 07:02:09;;;;;;;9.67;4.10;;;;;;;4.62;85.04;99013.06;5084837;28;20315;-61
2021/12/08 07:04:54;;;;;;;11.50;4.47;;;;;;;4.62;85.14;99010.44;5085720;28;20213;-61
2021/12/08 07:07:26;;;;;;;7.47;4.17;;;;;;;4.53;86.09;99003.44;5092222;28;20239;-61
2021/12/08 07:10:01;;;;;;;10.77;4.73;;;;;;;4.67;85.37;98997.69;5078922;28;20238;-61
2021/12/08 07:12:34;;;;;;;10.90;5.30;;;;;;;4.57;86.41;98996.94;5087558;28;20292;-61
2021/12/08 07:15:10;;;;;;;10.43;4.97;;;;;;;4.52;86.36;98992.13;5084857;28;20234;-61
2021/12/08 07:17:42;;;;;;;9.93;5.13;;;;;;;4.66;86.25;99009.16;5083575;28;20230;-61
2021/12/08 07:20:18;;;;;;;12.57;5.67;;;;;;;4.78;85.41;99021.16;5086451;28;20288;-62
2021/12/08 07:22:50;;;;;;;8.77;4.97;;;;;;;4.77;85.03;99022.13;5087548;28;20217;-62
2021/12/08 07:25:20;;;;;;;12.73;4.87;;;;;;;4.65;86.09;99032.97;5081330;28;20291;-62
2021/12/08 07:27:48;;;;;;;11.13;4.83;;;;;;;4.70;85.57;99052.56;5076868;28;20608;-62
2021/12/08 07:30:21;;;;;;;11.97;4.67;;;;;;;4.68;85.85;99057.13;5087323;28;20310;-63
2021/12/08 07:32:49;;;;;;;11.10;5.63;;;;;;;4.77;84.85;99045.75;5083275;28;20309;-61
2021/12/08 07:35:21;;;;;;;11.73;5.13;;;;;;;4.95;84.35;99030.03;5090502;28;20313;-61
2021/12/08 07:37:51;;;;;;;12.77;6.00;;;;;;;4.83;84.87;99007.59;5086035;28;20460;-62
2021/12/08 07:40:24;;;;;;;13.23;5.93;;;;;;;4.68;85.45;99020.38;5091136;28;20237;-62
2021/12/08 07:42:58;;;;;;;12.40;5.93;;;;;;;4.83;85.74;99023.34;5079452;28;20741;-61
2021/12/08 07:45:32;;;;;;;11.47;5.83;;;;;;;4.73;85.92;99015.53;5081737;28;20220;-61
2021/12/08 07:48:01;;;;;;;10.70;6.13;;;;;;;4.71;85.92;99012.22;5087546;28;20210;-61
2021/12/08 07:50:34;;;;;;;12.27;6.63;;;;;;;4.73;86.36;99012.06;5087636;28;20243;-60
2021/12/08 07:53:03;;;;;;;18.23;6.93;;;;;;;4.88;85.63;99014.03;5086513;28;20252;-61
2021/12/08 07:55:34;;;;;;;18.13;8.07;;;;;;;5.04;84.65;99020.44;5081055;28;20296;-62
2021/12/08 07:58:02;;;;;;;13.07;5.80;;;;;;;5.06;84.18;99016.69;5087827;28;20230;-65
2021/12/08 08:00:39;;;;;;;16.37;6.00;;;;;;;4.89;85.85;99015.69;5089422;28;20320;-63
2021/12/08 08:03:12;;;;;;;12.10;5.37;;;;;;;5.00;87.25;99000.72;5083398;28;20214;-62
2021/12/08 08:05:42;;;;;;;11.17;5.50;;;;;;;5.00;86.82;98992.84;5094883;28;20210;-62
2021/12/08 08:08:13;;;;;;;15.30;6.17;;;;;;;4.98;86.00;99002.66;5092129;28;20768;-62
2021/12/08 08:10:49;;;;;;;14.20;5.93;;;;;;;5.08;85.21;99009.50;5091500;28;20226;-62
2021/12/08 08:13:21;;;;;;;11.17;6.30;;;;;;;5.24;84.09;99008.84;5088745;28;20241;-62
2021/12/08 08:15:56;;;;;;;10.63;5.23;;;;;;;5.54;82.25;99000.53;5093728;28;20206;-62
2021/12/08 08:18:28;;;;;;;12.20;5.30;;;;;;;5.40;83.09;98997.63;5088131;28;20232;-62
2021/12/08 08:20:59;;;;;;;10.20;5.70;;;;;;;5.36;83.17;98997.13;5090281;28;20234;-62
2021/12/08 08:23:31;;;;;;;10.67;5.53;;;;;;;5.32;83.45;99005.44;5091905;28;20292;-62
2021/12/08 08:26:01;;;;;;;12.60;6.13;;;;;;;5.34;83.12;99014.03;5089947;28;20211;-62
2021/12/08 08:28:29;;;;;;;14.53;6.50;;;;;;;5.14;84.68;99024.66;5085236;28;20229;-62
2021/12/08 08:31:03;;;;;;;11.20;5.70;;;;;;;5.30;84.03;99032.72;5081268;28;20363;-62
2021/12/08 08:33:35;;;;;;;9.63;5.30;;;;;;;5.21;84.91;99036.22;5088051;28;20631;-65
2021/12/08 08:36:07;;;;;;;13.13;5.37;;;;;;;5.30;84.17;99030.06;5074055;28;20292;-65
2021/12/08 08:38:42;;;;;;;8.83;4.60;;;;;;;5.39;83.57;99030.97;5086958;28;20646;-63
2021/12/08 08:41:16;;;;;;;9.90;5.00;;;;;;;5.33;83.89;99038.66;5083811;28;20217;-63
2021/12/08 08:43:46;;;;;;;8.27;4.43;;;;;;;5.34;83.69;99040.31;5089749;28;20206;-64
2021/12/08 08:46:19;;;;;;;8.47;4.43;;;;;;;5.40;84.04;99029.19;5089220;28;20218;-64
2021/12/08 08:48:53;;;;;;;12.53;4.93;;;;;;;5.41;83.64;99030.84;5074576;28;20567;-64
2021/12/08 08:51:25;;;;;;;10.23;4.30;;;;;;;5.52;83.16;99028.81;5085794;28;20663;-64
2021/12/08 08:53:56;;;;;;;11.10;4.77;;;;;;;5.33;84.14;99044.72;5085122;28;20315;-64
2021/12/08 08:56:27;;;;;;;9.27;5.07;;;;;;;5.36;83.84;99044.44;5092970;28;20577;-64
2021/12/08 08:58:59;;;;;;;10.63;4.60;;;;;;;5.48;83.32;99037.97;5081966;28;20234;-64
2021/12/08 09:01:31;;;;;;;8.03;4.57;;;;;;;5.66;82.02;99038.78;5087553;28;20261;-64
2021/12/08 09:04:02;;;;;;;10.73;5.30;;;;;;;5.50;83.07;99041.28;5083202;28;20213;-64
2021/12/08 09:06:34;;;;;;;9.63;5.20;;;;;;;5.38;83.85;99041.63;5091371;28;20215;-64
2021/12/08 09:09:06;;;;;;;13.37;5.60;;;;;;;5.52;82.89;99028.81;5089596;28;20218;-64
2021/12/08 09:11:38;;;;;;;10.50;6.17;;;;;;;5.33;83.41;99034.22;5085898;28;20326;-61
2021/12/08 09:14:15;;;;;;;11.93;6.60;;;;;;;5.25;84.14;99021.00;5084731;28;20215;-59
2021/12/08 09:16:50;;;;;;;13.20;6.33;;;;;;;5.45;83.31;99016.44;5085171;28;20194;-59
2021/12/08 09:19:25;;;;;;;12.47;5.90;;;;;;;5.41;83.75;99015.88;5090156;28;20293;-60
2021/12/08 09:22:00;;;;;;;11.70;5.50;;;;;;;5.32;84.54;99027.31;5079210;28;20245;-59
2021/12/08 09:24:50;;;;;;;9.80;4.53;;;;;;;5.34;84.56;99041.13;5088277;28;20215;-61
2021/12/08 09:27:24;;;;;;;12.73;5.40;;;;;;;5.36;84.94;99052.31;5087740;28;20225;-61
2021/12/08 09:29:56;;;;;;;9.70;5.27;;;;;;;5.46;84.60;99057.50;5072718;28;20217;-62
2021/12/08 09:32:35;;;;;;;9.10;4.80;;;;;;;5.26;85.84;99060.28;5082629;28;20298;-61
2021/12/08 09:35:10;;;;;;;7.83;4.50;;;;;;;5.34;85.78;99074.47;5086590;28;20575;-62
2021/12/08 09:37:43;;;;;;;9.50;4.73;;;;;;;5.40;85.37;99076.50;5084101;28;20948;-61
2021/12/08 09:40:16;;;;;;;10.00;5.07;;;;;;;5.41;85.75;99084.25;5082666;28;20684;-61
2021/12/08 09:42:48;;;;;;;10.23;5.37;;;;;;;5.62;84.24;99090.06;5081679;28;20290;-62
2021/12/08 09:45:21;;;;;;;9.73;5.40;;;;;;;5.67;84.55;99090.41;5093400;28;20376;-62
2021/12/08 09:47:51;;;;;;;10.17;5.40;;;;;;;5.65;84.51;99092.34;5086539;28;20984;-62
2021/12/08 09:50:19;;;;;;;9.40;6.07;;;;;;;5.60;85.08;99094.63;5087549;28;20732;-61
2021/12/08 09:52:48;;;;;;;9.00;5.43;;;;;;;5.56;85.18;99103.78;5082399;28;20215;-61
2021/12/08 09:55:17;;;;;;;9.80;5.10;;;;;;;5.45;86.50;99111.91;5087345;28;20234;-61
2021/12/08 09:57:47;;;;;;;9.17;5.40;;;;;;;5.74;84.82;99100.31;5086207;28;20231;-61
2021/12/08 10:00:23;;;;;;;9.63;5.37;;;;;;;5.64;85.54;99103.03;5082964;28;20251;-61
2021/12/08 10:02:57;;;;;;;10.73;5.53;;;;;;;5.76;85.32;99108.91;5079402;28;20205;-60
2021/12/08 10:05:28;;;;;;;10.60;5.87;;;;;;;5.63;85.72;99096.09;5087294;28;20214;-61
2021/12/08 10:07:57;;;;;;;13.03;5.77;;;;;;;5.95;84.43;99095.63;5081361;28;20210;-60
2021/12/08 10:10:26;;;;;;;11.40;5.70;;;;;;;6.03;83.63;99085.16;5082445;28;20211;-63
2021/12/08 10:12:54;;;;;;;14.30;6.17;;;;;;;6.01;83.84;99087.09;5083987;28;20264;-62
2021/12/08 10:15:24;;;;;;;14.77;5.70;;;;;;;5.87;85.67;99087.63;5088991;28;20717;-62
2021/12/08 10:17:55;;;;;;;9.30;5.60;;;;;;;5.86;85.68;99078.09;5084212;28;20256;-63
2021/12/08 10:20:25;;;;;;;10.97;6.40;;;;;;;5.70;86.68;99075.31;5082482;28;20203;-60
2021/12/08 10:23:09;;;;;;;12.33;6.90;;;;;;;5.51;88.52;99073.66;5086622;28;20293;-61
2021/12/08 10:25:40;;;;;;;11.10;6.37;;;;;;;5.66;87.68;99061.63;5086992;28;20755;-63
2021/12/08 10:28:12;;;;;;;14.03;6.47;;;;;;;5.71;87.84;99055.94;5088818;28;20298;-62
2021/12/08 10:30:46;;;;;;;13.87;6.93;;;;;;;5.66;88.58;99061.63;5087447;28;20298;-61
2021/12/08 10:33:46;;;;;;;13.13;7.00;;;;;;;5.78;88.32;99059.59;5086084;28;20692;-61
2021/12/08 10:36:34;;;;;;;12.43;7.47;;;;;;;5.79;90.10;99062.09;5084877;28;20314;-61
2021/12/08 10:39:07;;;;;;;11.90;6.37;;;;;;;5.98;89.48;99061.91;5093815;28;20235;-61
2021/12/08 10:41:56;;;;;;;16.20;7.13;;;;;;;6.12;88.70;99059.72;5084596;28;21737;-63
2021/12/08 10:44:47;;;;;;;20.67;8.07;;;;;;;6.18;88.74;99067.81;5086694;28;20213;-62
2021/12/08 10:47:20;;;;;;;201.00;20.80;;;;;;;6.21;88.45;99051.72;5088088;28;22499;-59
2021/12/08 10:55:35;;;;;;;14.80;7.67;;;;;;;6.43;87.38;99048.56;5087323;28;20225;-59
2021/12/08 10:58:03;;;;;;;24.93;9.73;;;;;;;6.25;88.42;99047.78;5085131;28;20837;-60
2021/12/08 11:00:33;;;;;;;33.73;10.87;;;;;;;6.49;92.20;99052.41;5089446;28;20734;-60
2021/12/08 11:03:06;;;;;;;17.37;9.57;;;;;;;6.63;87.94;99045.72;5083745;28;20220;-61
2021/12/08 11:05:39;;;;;;;62.23;14.83;;;;;;;6.64;100.00;99055.25;5086131;28;20565;-59
2021/12/08 11:08:15;;;;;;;19.43;9.87;;;;;;;6.56;100.00;99060.50;5085790;28;20243;-65
2021/12/08 11:10:45;;;;;;;14.07;8.67;;;;;;;6.00;100.00;99059.13;5081856;28;20260;-64
2021/12/08 11:13:16;;;;;;;14.37;8.77;;;;;;;6.06;100.00;99057.72;5082891;28;20935;-67
2021/12/08 11:15:45;;;;;;;17.37;8.67;;;;;;;5.83;100.00;99058.16;5083853;28;20526;-68
2021/12/08 11:18:16;;;;;;;16.43;9.17;;;;;;;5.90;100.00;99058.41;5087335;28;20231;-67
2021/12/08 11:20:49;;;;;;;16.80;9.27;;;;;;;5.53;100.00;99048.88;5084312;28;20944;-68
2021/12/08 11:23:28;;;;;;;18.10;8.50;;;;;;;5.67;99.25;99044.88;5096748;28;20847;-69
2021/12/08 11:25:58;;;;;;;14.93;9.07;;;;;;;5.61;98.13;99043.69;5084014;28;20215;-67
2021/12/08 11:28:33;;;;;;;16.67;9.13;;;;;;;5.73;96.48;99039.00;5086462;28;20283;-68
2021/12/08 11:31:08;;;;;;;16.10;9.43;;;;;;;5.59;95.97;99037.75;5083398;28;20692;-68
2021/12/08 11:33:41;;;;;;;14.97;9.00;;;;;;;5.61;96.88;99042.88;5086792;28;20206;-68
2021/12/08 11:36:14;;;;;;;16.80;9.47;;;;;;;5.58;97.24;99043.16;5088688;28;20396;-68
2021/12/08 11:38:42;;;;;;;17.87;9.27;;;;;;;5.71;96.82;99040.97;5079470;28;20355;-68
2021/12/08 11:41:24;;;;;;;19.40;9.77;;;;;;;5.71;96.61;99030.47;5088374;28;20294;-67
2021/12/08 11:43:53;;;;;;;18.63;10.07;;;;;;;5.85;98.36;99039.59;5076834;28;20590;-68
2021/12/08 11:46:23;;;;;;;18.77;9.77;;;;;;;5.71;96.58;99037.53;5082385;28;20219;-68
2021/12/08 11:49:03;;;;;;;20.10;10.63;;;;;;;5.74;96.69;99037.19;5086327;28;20551;-68
2021/12/08 11:51:37;;;;;;;20.87;10.07;;;;;;;5.67;97.09;99040.44;5085897;28;20218;-68
2021/12/08 11:54:05;;;;;;;17.30;9.33;;;;;;;5.77;97.65;99027.22;5086904;28;20238;-67
2021/12/08 11:56:40;;;;;;;20.97;11.13;;;;;;;5.93;95.73;99026.53;5088323;28;20676;-68
2021/12/08 11:59:11;;;;;;;17.07;9.20;;;;;;;5.90;97.42;99021.56;5085956;28;20263;-68
2021/12/08 12:01:39;;;;;;;23.60;11.10;;;;;;;5.87;95.80;99024.50;5086306;28;20243;-66
2021/12/08 12:04:10;;;;;;;16.93;9.90;;;;;;;5.89;96.03;99033.09;5079082;28;20219;-67
2021/12/08 12:06:40;;;;;;;22.90;10.30;;;;;;;5.91;95.55;99034.56;5088372;28;20317;-66
2021/12/08 12:09:10;;;;;;;21.33;11.63;;;;;;;6.05;95.16;99025.31;5085876;28;20242;-66
2021/12/08 12:11:53;;;;;;;18.10;9.87;;;;;;;6.06;94.69;99032.22;5089941;28;20222;-68
2021/12/08 12:14:22;;;;;;;20.20;10.63;;;;;;;6.09;94.77;99025.81;5091267;28;20297;-70
2021/12/08 12:16:50;;;;;;;18.03;10.57;;;;;;;6.04;94.40;99024.50;5090640;28;20217;-66
2021/12/08 12:19:22;;;;;;;19.03;10.93;;;;;;;6.00;95.16;99025.75;5090931;28;20228;-67
2021/12/08 12:22:01;;;;;;;22.67;11.40;;;;;;;6.10;94.49;99033.56;5091582;28;20260;-68
2021/12/08 12:24:44;;;;;;;21.70;9.47;;;;;;;6.18;93.92;99035.41;5097484;28;20694;-67
2021/12/08 12:27:32;;;;;;;16.77;9.87;;;;;;;6.16;93.36;99032.09;5081329;28;20676;-67
2021/12/08 12:30:10;;;;;;;17.70;9.27;;;;;;;6.33;92.01;99034.69;5093348;28;20695;-67
2021/12/08 12:32:45;;;;;;;21.80;10.20;;;;;;;6.35;91.29;99026.63;5084222;28;20221;-68
2021/12/08 12:35:19;;;;;;;17.00;9.57;;;;;;;6.48;90.74;99032.31;5084843;28;20289;-66